Time;durP1;ratioP1;P1;durP2;ratioP2;P2;SDS_P1;SDS_P2;PMS_P1;PMS_P2;Temp;Humidity;BMP_temperature;BMP_pressure;BME280_temperature;BME280_humidity;BME280_pressure;Samples;Min_cycle;Max_cycle;Signal;HPM_P1;HPM_P2
2022/08/27 00:00:08;;;;;;;;;;;22.40;57.20;;;;;;5043832;28;87117;-41
2022/08/27 00:02:34;;;;;;;;;;;22.30;57.10;;;;;;5044063;28;87476;-40
2022/08/27 00:05:01;;;;;;;;;;;22.30;57.10;;;;;;5046132;28;89398;-39
2022/08/27 00:07:26;;;;;;;;;;;22.40;57.20;;;;;;5043769;27;88072;-38
2022/08/27 00:09:52;;;;;;;;;;;22.30;57.10;;;;;;5043470;28;88445;-38
2022/08/27 00:12:17;;;;;;;;;;;22.30;57.10;;;;;;5043998;28;87135;-38
2022/08/27 00:14:43;;;;;;;;;;;22.30;57.10;;;;;;5043077;27;87855;-39
2022/08/27 00:17:09;;;;;;;;;;;22.20;57.10;;;;;;5043266;28;89706;-39
2022/08/27 00:19:35;;;;;;;;;;;22.30;57.10;;;;;;5043702;28;87085;-40
2022/08/27 00:22:01;;;;;;;;;;;22.20;57.10;;;;;;5043091;28;87004;-40
2022/08/27 00:24:27;;;;;;;;;;;22.20;57.20;;;;;;5043349;28;87280;-38
2022/08/27 00:26:52;;;;;;;;;;;22.20;57.20;;;;;;5046721;28;87208;-39
2022/08/27 00:29:19;;;;;;;;;;;22.20;57.20;;;;;;5043400;28;87996;-38
2022/08/27 00:31:45;;;;;;;;;;;22.20;57.30;;;;;;5043971;28;86349;-41
2022/08/27 00:34:10;;;;;;;;;;;22.20;57.30;;;;;;5043693;28;88326;-41
2022/08/27 00:36:36;;;;;;;;;;;22.10;57.20;;;;;;5041694;28;91128;-41
2022/08/27 00:39:02;;;;;;;;;;;22.10;57.20;;;;;;5041969;28;88114;-38
2022/08/27 00:41:27;;;;;;;;;;;22.10;57.30;;;;;;5043482;27;88394;-41
2022/08/27 00:43:57;;;;;;;;;;;22.10;57.30;;;;;;5043263;28;87287;-41
2022/08/27 00:46:25;;;;;;;;;;;22.10;57.30;;;;;;5043150;28;87090;-40
2022/08/27 00:48:52;;;;;;;;;;;22.10;57.30;;;;;;5045896;27;87383;-38
2022/08/27 00:51:20;;;;;;;;;;;22.00;57.20;;;;;;5042852;28;87056;-37
2022/08/27 00:53:45;;;;;;;;;;;22.00;57.30;;;;;;5043204;27;87145;-37
2022/08/27 00:56:15;;;;;;;;;;;22.00;57.30;;;;;;5043279;28;87256;-40
2022/08/27 00:58:45;;;;;;;;;;;22.00;57.60;;;;;;5043064;28;87194;-40
2022/08/27 01:01:13;;;;;;;;;;;22.00;57.30;;;;;;5043109;28;89080;-38
2022/08/27 01:03:39;;;;;;;;;;;22.00;57.30;;;;;;5042012;28;88930;-39
2022/08/27 01:06:08;;;;;;;;;;;22.00;57.40;;;;;;5042750;28;87183;-38
2022/08/27 01:08:36;;;;;;;;;;;22.00;57.30;;;;;;5042805;28;89101;-39
2022/08/27 01:11:03;;;;;;;;;;;21.90;57.30;;;;;;5045151;28;89188;-41
2022/08/27 01:13:30;;;;;;;;;;;21.90;57.30;;;;;;5042716;28;89078;-38
2022/08/27 01:15:57;;;;;;;;;;;21.90;57.30;;;;;;5042567;28;87976;-37
2022/08/27 01:18:24;;;;;;;;;;;21.90;57.30;;;;;;5042671;28;86951;-38
2022/08/27 01:20:54;;;;;;;;;;;21.90;57.40;;;;;;5043322;27;87390;-37
2022/08/27 01:23:23;;;;;;;;;;;21.80;57.30;;;;;;5041726;28;88166;-41
2022/08/27 01:25:49;;;;;;;;;;;21.90;57.40;;;;;;5042844;28;88256;-39
2022/08/27 01:28:15;;;;;;;;;;;21.80;57.40;;;;;;5042198;28;88144;-41
2022/08/27 01:30:41;;;;;;;;;;;21.80;57.30;;;;;;5045233;28;87985;-38
2022/08/27 01:33:14;;;;;;;;;;;21.80;57.30;;;;;;5042253;27;87357;-41
2022/08/27 01:35:40;;;;;;;;;;;21.80;57.40;;;;;;5042091;28;87228;-38
2022/08/27 01:38:06;;;;;;;;;;;21.80;57.40;;;;;;5042488;28;87086;-38
2022/08/27 01:40:31;;;;;;;;;;;21.80;57.40;;;;;;5042695;27;87579;-38
2022/08/27 01:42:58;;;;;;;;;;;21.70;57.40;;;;;;5042060;28;89357;-39
2022/08/27 01:45:28;;;;;;;;;;;21.70;57.30;;;;;;5042831;28;86276;-37
2022/08/27 01:47:54;;;;;;;;;;;21.70;57.40;;;;;;5042295;28;88290;-39
2022/08/27 01:50:21;;;;;;;;;;;21.70;57.40;;;;;;5042679;28;88311;-37
2022/08/27 01:52:48;;;;;;;;;;;21.70;57.40;;;;;;5048169;28;88041;-38
2022/08/27 01:55:15;;;;;;;;;;;21.70;57.50;;;;;;5045242;28;89052;-40
2022/08/27 01:57:41;;;;;;;;;;;21.60;57.40;;;;;;5045882;28;87154;-39
2022/08/27 02:00:09;;;;;;;;;;;21.60;57.40;;;;;;5045982;28;87646;-41
2022/08/27 02:02:35;;;;;;;;;;;21.60;57.40;;;;;;5045177;28;88438;-40
2022/08/27 02:05:00;;;;;;;;;;;21.60;57.50;;;;;;5046026;28;87152;-39
2022/08/27 02:07:26;;;;;;;;;;;21.60;57.50;;;;;;5046040;27;87004;-38
2022/08/27 02:09:52;;;;;;;;;;;21.60;57.50;;;;;;5046152;28;87403;-38
2022/08/27 02:12:17;;;;;;;;;;;21.60;57.40;;;;;;5045393;28;87145;-40
2022/08/27 02:14:42;;;;;;;;;;;21.50;57.40;;;;;;5048149;28;87590;-41
2022/08/27 02:17:08;;;;;;;;;;;21.50;57.40;;;;;;5044840;28;88126;-40
2022/08/27 02:19:33;;;;;;;;;;;21.50;57.50;;;;;;5045514;28;88586;-38
2022/08/27 02:21:59;;;;;;;;;;;21.50;57.50;;;;;;5044787;28;88189;-37
2022/08/27 02:24:26;;;;;;;;;;;21.50;57.50;;;;;;5045521;28;87185;-39
2022/08/27 02:26:52;;;;;;;;;;;21.50;57.50;;;;;;5045464;27;87355;-41
2022/08/27 02:29:18;;;;;;;;;;;21.50;57.50;;;;;;5045192;27;89623;-37
2022/08/27 02:31:43;;;;;;;;;;;21.40;57.50;;;;;;5045107;28;87012;-39
2022/08/27 02:34:09;;;;;;;;;;;21.40;57.50;;;;;;5045929;28;87544;-39
2022/08/27 02:36:36;;;;;;;;;;;21.40;57.50;;;;;;5047683;28;89325;-41
2022/08/27 02:39:02;;;;;;;;;;;21.40;57.50;;;;;;5045344;27;87284;-39
2022/08/27 02:41:28;;;;;;;;;;;21.40;57.50;;;;;;5044218;28;88850;-39
2022/08/27 02:43:54;;;;;;;;;;;21.40;57.50;;;;;;5045171;28;87124;-40
2022/08/27 02:46:19;;;;;;;;;;;21.40;57.60;;;;;;5045027;28;87544;-38
2022/08/27 02:48:45;;;;;;;;;;;21.40;57.60;;;;;;5043391;28;91056;-39
2022/08/27 02:51:10;;;;;;;;;;;21.30;57.50;;;;;;5045094;28;87097;-39
2022/08/27 02:53:36;;;;;;;;;;;21.30;57.50;;;;;;5045012;27;87181;-37
2022/08/27 02:56:03;;;;;;;;;;;21.30;57.60;;;;;;5044837;28;87083;-38
2022/08/27 02:58:28;;;;;;;;;;;21.30;57.50;;;;;;5048165;28;86390;-40
2022/08/27 03:00:55;;;;;;;;;;;21.30;57.60;;;;;;5044471;28;88135;-38
2022/08/27 03:03:21;;;;;;;;;;;21.20;57.50;;;;;;5044215;27;87121;-37
2022/08/27 03:05:47;;;;;;;;;;;21.30;57.60;;;;;;5044375;28;87951;-39
2022/08/27 03:08:12;;;;;;;;;;;21.20;57.50;;;;;;5044254;28;89196;-38
2022/08/27 03:10:38;;;;;;;;;;;21.20;57.60;;;;;;5044535;28;87176;-39
2022/08/27 03:13:04;;;;;;;;;;;21.20;57.60;;;;;;5044454;27;88950;-38
2022/08/27 03:15:30;;;;;;;;;;;21.20;57.60;;;;;;5044299;28;88085;-36
2022/08/27 03:20:40;;;;;;;;;;;21.10;57.60;;;;;;5047374;28;86865;-39
2022/08/27 03:23:07;;;;;;;;;;;21.10;57.60;;;;;;5045105;28;86363;-40
2022/08/27 03:25:32;;;;;;;;;;;21.10;57.60;;;;;;5044900;27;87044;-38
2022/08/27 03:27:58;;;;;;;;;;;21.00;57.60;;;;;;5043939;28;88247;-40
2022/08/27 03:30:24;;;;;;;;;;;21.00;57.60;;;;;;5043979;28;88114;-41
2022/08/27 03:32:50;;;;;;;;;;;21.10;57.60;;;;;;5043008;28;88857;-40
2022/08/27 03:35:15;;;;;;;;;;;21.00;57.70;;;;;;5044170;28;87938;-39
2022/08/27 03:37:41;;;;;;;;;;;21.00;57.70;;;;;;5044534;28;87358;-39
2022/08/27 03:40:08;;;;;;;;;;;21.00;57.60;;;;;;5047260;27;87392;-37
2022/08/27 03:42:34;;;;;;;;;;;21.00;57.70;;;;;;5044157;28;87092;-40
2022/08/27 03:44:59;;;;;;;;;;;21.00;57.70;;;;;;5042768;28;90170;-40
2022/08/27 03:47:25;;;;;;;;;;;21.00;57.70;;;;;;5044699;28;87652;-37
2022/08/27 03:49:50;;;;;;;;;;;21.00;57.80;;;;;;5044300;28;87126;-41
2022/08/27 03:52:16;;;;;;;;;;;20.90;57.80;;;;;;5044116;27;88210;-39
2022/08/27 03:54:41;;;;;;;;;;;20.90;57.80;;;;;;5043171;28;88910;-37
2022/08/27 03:57:07;;;;;;;;;;;20.90;57.80;;;;;;5044165;28;87110;-41
2022/08/27 03:59:33;;;;;;;;;;;20.90;57.80;;;;;;5043727;27;88574;-38
2022/08/27 04:01:59;;;;;;;;;;;20.90;57.80;;;;;;5046622;28;89419;-38
2022/08/27 04:04:24;;;;;;;;;;;20.80;57.70;;;;;;5043959;27;87527;-40
2022/08/27 04:06:50;;;;;;;;;;;20.80;57.80;;;;;;5043651;28;87558;-37
2022/08/27 04:09:15;;;;;;;;;;;20.80;57.80;;;;;;5043888;28;87408;-37
2022/08/27 04:11:41;;;;;;;;;;;20.80;57.80;;;;;;5044213;28;88645;-37
2022/08/27 04:14:07;;;;;;;;;;;20.80;57.80;;;;;;5041998;27;89776;-37
2022/08/27 04:16:33;;;;;;;;;;;20.80;57.80;;;;;;5043460;28;87043;-38
2022/08/27 04:18:59;;;;;;;;;;;20.80;57.90;;;;;;5043300;27;87967;-40
2022/08/27 04:21:25;;;;;;;;;;;20.70;57.90;;;;;;5042619;28;88013;-41
2022/08/27 04:23:50;;;;;;;;;;;20.70;57.90;;;;;;5046675;28;86980;-37
2022/08/27 04:26:16;;;;;;;;;;;20.70;57.80;;;;;;5043274;28;88013;-39
2022/08/27 04:28:41;;;;;;;;;;;20.70;57.90;;;;;;5043280;28;87157;-39
2022/08/27 04:31:08;;;;;;;;;;;20.70;57.90;;;;;;5043690;28;86976;-38
2022/08/27 04:33:34;;;;;;;;;;;20.70;57.90;;;;;;5043179;28;88476;-39
2022/08/27 04:36:00;;;;;;;;;;;20.70;58.00;;;;;;5044112;28;86352;-40
2022/08/27 04:38:26;;;;;;;;;;;20.70;57.90;;;;;;5043117;27;89487;-39
2022/08/27 04:43:36;;;;;;;;;;;20.60;57.80;;;;;;5042876;28;87977;-39
2022/08/27 04:46:01;;;;;;;;;;;20.60;57.80;;;;;;5046146;28;88388;-40
2022/08/27 04:48:27;;;;;;;;;;;20.60;57.90;;;;;;5043424;28;87100;-38
2022/08/27 04:50:52;;;;;;;;;;;20.60;57.90;;;;;;5043399;28;87412;-40
2022/08/27 04:53:18;;;;;;;;;;;20.60;57.90;;;;;;5042815;28;88174;-37
2022/08/27 04:55:48;;;;;;;;;;;20.60;58.00;;;;;;5042899;28;87129;-40
2022/08/27 04:58:14;;;;;;;;;;;20.60;58.10;;;;;;5043201;27;87297;-40
2022/08/27 05:00:43;;;;;;;;;;;20.60;58.00;;;;;;5043372;28;87277;-37
2022/08/27 05:03:09;;;;;;;;;;;20.60;58.00;;;;;;5042889;28;86949;-38
2022/08/27 05:05:35;;;;;;;;;;;20.60;58.00;;;;;;5042831;28;88956;-40
2022/08/27 05:08:01;;;;;;;;;;;20.60;58.00;;;;;;5044971;28;88963;-39
2022/08/27 05:10:27;;;;;;;;;;;20.50;58.00;;;;;;5042590;28;88412;-39
2022/08/27 05:12:52;;;;;;;;;;;20.50;58.00;;;;;;5042343;28;88333;-37
2022/08/27 05:15:18;;;;;;;;;;;20.50;58.00;;;;;;5042850;28;87133;-40
2022/08/27 05:17:43;;;;;;;;;;;20.50;58.00;;;;;;5043440;28;87928;-41
2022/08/27 05:20:09;;;;;;;;;;;20.50;58.00;;;;;;5042343;28;89409;-39
2022/08/27 05:22:35;;;;;;;;;;;20.50;58.00;;;;;;5042271;28;86959;-41
2022/08/27 05:25:00;;;;;;;;;;;20.50;58.00;;;;;;5042926;28;87528;-38
2022/08/27 05:27:26;;;;;;;;;;;20.50;58.10;;;;;;5042214;28;88038;-41
2022/08/27 05:29:51;;;;;;;;;;;20.50;58.10;;;;;;5045601;28;87018;-38
2022/08/27 05:32:17;;;;;;;;;;;20.50;58.10;;;;;;5041733;28;89053;-39
2022/08/27 05:34:42;;;;;;;;;;;20.40;58.10;;;;;;5042894;28;87095;-40
2022/08/27 05:37:08;;;;;;;;;;;20.50;58.10;;;;;;5042622;28;88252;-37
2022/08/27 05:39:34;;;;;;;;;;;20.50;58.10;;;;;;5042073;28;88187;-39
2022/08/27 05:42:00;;;;;;;;;;;20.50;58.20;;;;;;5042211;28;87162;-38
2022/08/27 05:44:25;;;;;;;;;;;20.50;58.10;;;;;;5042348;28;87444;-40
2022/08/27 05:46:51;;;;;;;;;;;20.50;58.10;;;;;;5041983;28;88038;-39
2022/08/27 05:49:17;;;;;;;;;;;20.50;58.40;;;;;;5045738;28;86404;-39
2022/08/27 05:51:42;;;;;;;;;;;20.50;58.20;;;;;;5041944;28;89283;-40
2022/08/27 05:54:13;;;;;;;;;;;20.50;58.20;;;;;;5042418;28;87418;-38
2022/08/27 05:56:39;;;;;;;;;;;20.50;58.20;;;;;;5041509;27;89165;-39
2022/08/27 06:01:50;;;;;;;;;;;20.50;58.20;;;;;;5042440;28;86811;-39
2022/08/27 06:04:16;;;;;;;;;;;20.50;58.30;;;;;;5042292;27;87904;-38
2022/08/27 06:06:42;;;;;;;;;;;20.50;58.30;;;;;;5041656;28;89589;-38
2022/08/27 06:09:09;;;;;;;;;;;20.50;58.40;;;;;;5042287;28;87078;-41
2022/08/27 06:11:35;;;;;;;;;;;20.50;58.40;;;;;;5044674;28;87413;-37
2022/08/27 06:14:00;;;;;;;;;;;20.50;58.40;;;;;;5042130;28;86411;-38
2022/08/27 06:16:26;;;;;;;;;;;20.40;58.30;;;;;;5041934;27;86962;-41
2022/08/27 06:18:52;;;;;;;;;;;20.40;58.40;;;;;;5041592;28;87820;-40
2022/08/27 06:21:18;;;;;;;;;;;20.50;58.40;;;;;;5040749;28;88020;-38
2022/08/27 06:23:44;;;;;;;;;;;20.40;58.50;;;;;;5041441;27;89734;-39
2022/08/27 06:26:11;;;;;;;;;;;20.40;58.50;;;;;;5041830;28;88355;-37
2022/08/27 06:28:40;;;;;;;;;;;20.40;58.50;;;;;;5041662;28;87011;-40
2022/08/27 06:31:07;;;;;;;;;;;20.50;58.60;;;;;;5041477;27;88918;-37
2022/08/27 06:33:33;;;;;;;;;;;20.40;58.70;;;;;;5044436;28;88118;-38
2022/08/27 06:35:59;;;;;;;;;;;20.40;58.60;;;;;;5041338;27;88777;-38
2022/08/27 06:38:25;;;;;;;;;;;20.40;58.60;;;;;;5043788;27;87264;-37
2022/08/27 06:40:51;;;;;;;;;;;20.40;58.70;;;;;;5044971;28;87085;-37
2022/08/27 06:43:16;;;;;;;;;;;20.40;58.70;;;;;;5045232;28;87808;-39
2022/08/27 06:45:42;;;;;;;;;;;20.40;58.70;;;;;;5044089;28;89123;-38
2022/08/27 06:48:07;;;;;;;;;;;20.40;58.80;;;;;;5044930;28;87125;-38
2022/08/27 06:50:37;;;;;;;;;;;20.50;58.90;;;;;;5045062;28;87526;-38
2022/08/27 06:53:03;;;;;;;;;;;20.40;58.80;;;;;;5044183;28;88217;-39
2022/08/27 06:55:28;;;;;;;;;;;20.50;58.80;;;;;;5047635;28;87221;-37
2022/08/27 06:57:55;;;;;;;;;;;20.40;59.40;;;;;;5044490;28;88202;-40
2022/08/27 07:00:20;;;;;;;;;;;20.40;58.90;;;;;;5044612;28;87173;-37
2022/08/27 07:02:46;;;;;;;;;;;20.40;58.90;;;;;;5045360;28;87801;-40
2022/08/27 07:05:11;;;;;;;;;;;20.50;59.00;;;;;;5044558;28;87257;-38
2022/08/27 07:07:37;;;;;;;;;;;20.40;59.00;;;;;;5044421;28;87151;-41
2022/08/27 07:10:03;;;;;;;;;;;20.40;59.00;;;;;;5043799;28;87963;-38
2022/08/27 07:12:29;;;;;;;;;;;20.50;59.10;;;;;;5043906;28;88952;-41
2022/08/27 07:14:54;;;;;;;;;;;20.40;59.10;;;;;;5044530;28;87115;-38
2022/08/27 07:17:20;;;;;;;;;;;20.50;59.10;;;;;;5047168;27;87535;-39
2022/08/27 07:19:46;;;;;;;;;;;20.40;59.00;;;;;;5044718;28;87115;-40
2022/08/27 07:22:11;;;;;;;;;;;20.40;59.10;;;;;;5043949;27;87388;-40
2022/08/27 07:24:37;;;;;;;;;;;20.40;59.10;;;;;;5043824;28;89439;-37
2022/08/27 07:27:03;;;;;;;;;;;20.40;59.20;;;;;;5044839;28;86334;-41
2022/08/27 07:29:28;;;;;;;;;;;20.50;59.10;;;;;;5044263;28;87068;-40
2022/08/27 07:31:54;;;;;;;;;;;20.40;59.10;;;;;;5043935;28;87950;-41
2022/08/27 07:34:19;;;;;;;;;;;20.40;59.10;;;;;;5043726;28;88047;-39
2022/08/27 07:36:45;;;;;;;;;;;20.50;59.20;;;;;;5046667;28;87468;-37
2022/08/27 07:39:12;;;;;;;;;;;20.40;59.10;;;;;;5043981;28;87112;-39
2022/08/27 07:44:26;;;;;;;;;;;20.50;59.10;;;;;;5043859;28;86908;-37
2022/08/27 07:46:56;;;;;;;;;;;20.50;59.30;;;;;;5043876;28;87099;-40
2022/08/27 07:49:22;;;;;;;;;;;20.50;59.20;;;;;;5043503;27;88828;-39
2022/08/27 07:51:48;;;;;;;;;;;20.50;59.80;;;;;;5044134;28;87237;-38
2022/08/27 07:54:14;;;;;;;;;;;20.50;59.20;;;;;;5044026;28;87053;-40
2022/08/27 07:56:40;;;;;;;;;;;20.50;59.30;;;;;;5043692;27;87035;-39
2022/08/27 07:59:05;;;;;;;;;;;20.50;59.20;;;;;;5045705;28;89077;-39
2022/08/27 08:01:31;;;;;;;;;;;20.50;59.30;;;;;;5044029;27;88555;-37
2022/08/27 08:03:56;;;;;;;;;;;20.50;59.30;;;;;;5043357;28;87961;-38
2022/08/27 08:06:22;;;;;;;;;;;20.50;59.40;;;;;;5043939;28;87032;-38
2022/08/27 08:08:47;;;;;;;;;;;20.50;59.30;;;;;;5043868;28;87494;-38
2022/08/27 08:11:14;;;;;;;;;;;20.50;59.40;;;;;;5042979;28;88092;-38
2022/08/27 08:13:40;;;;;;;;;;;20.50;59.20;;;;;;5043435;28;87127;-38
2022/08/27 08:16:05;;;;;;;;;;;20.50;59.30;;;;;;5044124;27;87441;-38
2022/08/27 08:18:31;;;;;;;;;;;20.50;59.30;;;;;;5043160;28;88156;-39
2022/08/27 08:21:05;;;;;;;;;;;20.60;59.20;;;;;;5046321;28;87005;-39
2022/08/27 08:23:31;;;;;;;;;;;20.50;59.10;;;;;;5042176;28;88219;-39
2022/08/27 08:25:58;;;;;;;;;;;20.60;59.20;;;;;;5043223;28;87159;-37
2022/08/27 08:28:23;;;;;;;;;;;20.60;59.30;;;;;;5043426;27;88921;-39
2022/08/27 08:30:50;;;;;;;;;;;20.60;59.30;;;;;;5043111;28;88130;-37
2022/08/27 08:33:16;;;;;;;;;;;20.60;59.20;;;;;;5042211;28;88248;-37
2022/08/27 08:35:41;;;;;;;;;;;20.60;59.20;;;;;;5042906;28;88827;-38
2022/08/27 08:38:07;;;;;;;;;;;20.60;59.30;;;;;;5042808;28;89242;-40
2022/08/27 08:40:34;;;;;;;;;;;20.60;59.10;;;;;;5043635;28;86334;-38
2022/08/27 08:43:00;;;;;;;;;;;20.60;59.30;;;;;;5045802;27;86926;-39
2022/08/27 08:45:28;;;;;;;;;;;20.60;59.20;;;;;;5043045;28;86838;-38
2022/08/27 08:48:05;;;;;;;;;;;20.60;59.10;;;;;;5041978;27;88777;-40
2022/08/27 08:50:33;;;;;;;;;;;20.60;59.10;;;;;;5042546;28;87931;-38
2022/08/27 08:53:11;;;;;;;;;;;20.60;59.00;;;;;;5042954;28;87155;-37
2022/08/27 08:55:36;;;;;;;;;;;20.60;59.00;;;;;;5042900;28;87527;-40
2022/08/27 08:58:28;;;;;;;;;;;20.70;59.00;;;;;;5042898;28;87984;-38
2022/08/27 09:00:56;;;;;;;;;;;20.70;59.00;;;;;;5042382;28;87036;-38
2022/08/27 09:03:22;;;;;;;;;;;20.70;59.00;;;;;;5042755;27;87241;-39
2022/08/27 09:05:52;;;;;;;;;;;20.70;60.70;;;;;;5045528;28;87724;-37
2022/08/27 09:08:30;;;;;;;;;;;20.90;60.10;;;;;;5042789;27;86956;-37
2022/08/27 09:11:02;;;;;;;;;;;21.00;59.40;;;;;;5041931;27;87133;-43
2022/08/27 09:13:31;;;;;;;;;;;21.10;59.30;;;;;;5041750;28;87984;-36
2022/08/27 09:16:00;;;;;;;;;;;21.20;60.00;;;;;;5042740;28;87836;-35
2022/08/27 09:18:25;;;;;;;;;;;21.30;60.30;;;;;;5041908;28;88531;-35
2022/08/27 09:20:55;;;;;;;;;;;21.40;61.70;;;;;;5042634;28;87086;-37
2022/08/27 09:23:33;;;;;;;;;;;21.60;62.20;;;;;;5042275;27;87443;-41
2022/08/27 09:25:59;;;;;;;;;;;21.70;62.40;;;;;;5041779;28;87902;-36
2022/08/27 09:31:13;;;;;;;;;;;21.80;60.30;;;;;;5041497;28;86530;-37
2022/08/27 09:33:38;;;;;;;;;;;21.90;58.00;;;;;;5042183;28;87110;-37
2022/08/27 09:36:09;;;;;;;;;;;21.90;59.70;;;;;;5042255;28;87501;-38
2022/08/27 09:38:35;;;;;;;;;;;22.00;60.20;;;;;;5041324;28;89088;-37
2022/08/27 09:41:13;;;;;;;;;;;22.00;59.20;;;;;;5042154;28;87164;-39
2022/08/27 09:43:42;;;;;;;;;;;22.00;59.80;;;;;;5042566;27;87353;-37
2022/08/27 09:46:21;;;;;;;;;;;22.10;59.40;;;;;;5041699;28;89688;-37
2022/08/27 09:48:47;;;;;;;;;;;22.20;62.20;;;;;;5045037;28;87127;-37
2022/08/27 09:51:15;;;;;;;;;;;22.20;60.10;;;;;;5041724;28;87983;-37
2022/08/27 09:53:49;;;;;;;;;;;22.20;60.10;;;;;;5042197;28;87090;-37
2022/08/27 09:56:31;;;;;;;;;;;22.20;62.10;;;;;;5042288;27;88981;-36
2022/08/27 09:59:10;;;;;;;;;;;22.30;59.00;;;;;;5041831;28;87803;-36
2022/08/27 10:01:37;;;;;;;;;;;22.30;57.10;;;;;;5042127;28;87098;-36
2022/08/27 10:04:07;;;;;;;;;;;22.20;55.20;;;;;;5041676;27;87947;-36
2022/08/27 10:06:33;;;;;;;;;;;22.30;54.50;;;;;;5041485;28;87992;-36
2022/08/27 10:09:04;;;;;;;;;;;22.30;57.10;;;;;;5042053;28;87603;-36
2022/08/27 10:11:32;;;;;;;;;;;22.40;56.50;;;;;;5044391;28;87480;-36
2022/08/27 10:14:33;;;;;;;;;;;22.40;55.40;;;;;;5044826;28;87164;-36
2022/08/27 10:17:07;;;;;;;;;;;22.40;53.30;;;;;;5002836;28;88861;-35
2022/08/27 10:19:32;;;;;;;;;;;22.50;54.80;;;;;;5038116;27;89279;-37
2022/08/27 10:22:16;;;;;;;;;;;22.40;55.00;;;;;;5045458;28;86350;-37
2022/08/27 10:25:01;;;;;;;;;;;22.50;55.10;;;;;;5045157;27;87299;-37
2022/08/27 10:27:31;;;;;;;;;;;22.60;53.40;;;;;;5045220;28;87978;-37
2022/08/27 10:30:00;;;;;;;;;;;22.70;52.50;;;;;;5044823;28;88030;-37
2022/08/27 10:32:40;;;;;;;;;;;22.70;55.20;;;;;;5045144;28;87537;-38
2022/08/27 10:35:08;;;;;;;;;;;22.80;56.30;;;;;;5047694;28;88123;-38
2022/08/27 10:37:52;;;;;;;;;;;22.90;57.10;;;;;;5044968;27;87931;-38
2022/08/27 10:40:23;;;;;;;;;;;23.00;57.00;;;;;;5044675;27;89565;-40
2022/08/27 10:43:01;;;;;;;;;;;23.00;56.80;;;;;;5045046;28;87086;-37
2022/08/27 10:45:33;;;;;;;;;;;23.00;54.80;;;;;;5045174;27;87555;-37
2022/08/27 10:48:01;;;;;;;;;;;23.10;56.10;;;;;;5044969;28;87688;-37
2022/08/27 10:50:32;;;;;;;;;;;23.20;57.40;;;;;;5044500;28;87344;-37
2022/08/27 10:53:05;;;;;;;;;;;23.00;57.50;;;;;;5044897;28;87280;-36
2022/08/27 10:55:32;;;;;;;;;;;23.00;57.50;;;;;;5043013;28;89012;-37
2022/08/27 10:58:16;;;;;;;;;;;22.90;57.40;;;;;;5047898;28;87111;-36
2022/08/27 11:00:48;;;;;;;;;;;22.90;57.40;;;;;;5044535;27;87380;-36
2022/08/27 11:03:17;;;;;;;;;;;22.90;57.40;;;;;;5042818;28;87102;-37
2022/08/27 11:05:46;;;;;;;;;;;22.90;57.50;;;;;;5042327;28;89137;-37
2022/08/27 11:08:11;;;;;;;;;;;22.80;57.40;;;;;;5041908;28;88043;-36
2022/08/27 11:10:40;;;;;;;;;;;22.80;57.40;;;;;;5042098;28;87028;-36
2022/08/27 11:13:13;;;;;;;;;;;22.80;57.50;;;;;;5042674;28;88931;-36
2022/08/27 11:15:42;;;;;;;;;;;22.80;57.50;;;;;;5042844;28;88155;-40
2022/08/27 11:18:19;;;;;;;;;;;22.80;58.10;;;;;;5044479;28;87075;-40
2022/08/27 11:20:52;;;;;;;;;;;22.80;57.40;;;;;;5045132;28;87949;-37
2022/08/27 11:23:26;;;;;;;;;;;22.90;56.00;;;;;;5043076;27;87126;-38
2022/08/27 11:26:00;;;;;;;;;;;22.90;54.70;;;;;;5043992;27;87489;-38
2022/08/27 11:28:30;;;;;;;;;;;23.10;54.60;;;;;;5042205;28;88173;-38
2022/08/27 11:31:16;;;;;;;;;;;23.20;54.50;;;;;;5042033;28;87157;-38
2022/08/27 11:33:42;;;;;;;;;;;23.20;53.80;;;;;;5042823;28;87553;-37
2022/08/27 11:36:33;;;;;;;;;;;23.20;54.20;;;;;;5043656;28;87107;-38
2022/08/27 11:39:02;;;;;;;;;;;23.10;54.80;;;;;;5026776;28;87267;-37
2022/08/27 11:41:38;;;;;;;;;;;23.10;54.70;;;;;;5044280;28;87013;-37
2022/08/27 11:44:03;;;;;;;;;;;23.10;54.70;;;;;;5045273;28;91009;-40
2022/08/27 11:46:38;;;;;;;;;;;23.10;55.40;;;;;;5043389;27;88019;-38
2022/08/27 11:49:04;;;;;;;;;;;23.20;53.60;;;;;;5044042;28;87935;-39
2022/08/27 11:51:34;;;;;;;;;;;23.30;53.30;;;;;;5044095;28;87127;-40
2022/08/27 11:54:09;;;;;;;;;;;23.30;52.90;;;;;;5043728;28;87464;-40
2022/08/27 11:56:40;;;;;;;;;;;23.40;52.40;;;;;;5043569;28;89703;-38
2022/08/27 11:59:24;;;;;;;;;;;23.50;55.20;;;;;;5043887;28;87012;-39
2022/08/27 12:01:51;;;;;;;;;;;23.60;56.80;;;;;;5043512;27;88835;-40
2022/08/27 12:04:32;;;;;;;;;;;23.60;54.40;;;;;;5046754;28;88753;-42
2022/08/27 12:07:04;;;;;;;;;;;23.70;56.50;;;;;;5043753;27;88093;-41
2022/08/27 12:09:42;;;;;;;;;;;23.70;52.50;;;;;;5042992;28;89438;-37
2022/08/27 12:12:12;;;;;;;;;;;23.80;54.70;;;;;;5043035;28;87990;-37
2022/08/27 12:14:43;;;;;;;;;;;23.60;55.20;;;;;;5043539;28;88393;-37
2022/08/27 12:17:18;;;;;;;;;;;23.70;55.20;;;;;;5043258;28;88519;-37
2022/08/27 12:20:04;;;;;;;;;;;23.60;55.10;;;;;;5043715;28;87067;-37
2022/08/27 12:23:38;;;;;;;;;;;23.60;55.20;;;;;;5043213;28;87434;-37
2022/08/27 12:25:22;;;;;;;;;;;23.60;55.40;;;;;;5042289;28;88735;-37
2022/08/27 12:27:54;;;;;;;;;;;23.60;55.40;;;;;;5046492;28;87003;-37
2022/08/27 12:30:21;;;;;;;;;;;23.60;55.50;;;;;;5043635;28;87492;-37
2022/08/27 12:32:53;;;;;;;;;;;23.60;55.60;;;;;;5043081;28;86998;-37
2022/08/27 12:35:24;;;;;;;;;;;23.60;55.70;;;;;;5042166;27;88888;-37
2022/08/27 12:38:05;;;;;;;;;;;23.60;55.70;;;;;;5042196;28;89324;-39
2022/08/27 12:40:39;;;;;;;;;;;23.70;54.80;;;;;;5043354;28;87179;-38
2022/08/27 12:43:06;;;;;;;;;;;23.80;55.80;;;;;;5043341;28;87056;-38
2022/08/27 12:45:32;;;;;;;;;;;23.90;53.40;;;;;;5042933;28;88449;-37
2022/08/27 12:47:57;;;;;;;;;;;24.00;54.00;;;;;;5043243;28;87000;-36
2022/08/27 12:50:25;;;;;;;;;;;24.10;53.20;;;;;;5045771;28;87496;-37
2022/08/27 12:52:53;;;;;;;;;;;24.20;52.00;;;;;;5042968;28;86987;-36
2022/08/27 12:55:28;;;;;;;;;;;24.20;51.00;;;;;;5043523;28;87443;-37
2022/08/27 12:58:08;;;;;;;;;;;24.20;50.00;;;;;;5042649;28;87982;-38
2022/08/27 13:00:57;;;;;;;;;;;24.30;51.10;;;;;;5041147;28;87056;-41
2022/08/27 13:03:32;;;;;;;;;;;24.30;51.00;;;;;;5036071;28;88960;-39
2022/08/27 13:05:59;;;;;;;;;;;24.40;51.60;;;;;;5042542;28;88141;-38
2022/08/27 13:08:26;;;;;;;;;;;24.40;51.30;;;;;;5042343;27;86909;-41
2022/08/27 13:10:52;;;;;;;;;;;24.40;51.20;;;;;;5061515;27;87912;-41
2022/08/27 13:13:19;;;;;;;;;;;24.40;51.70;;;;;;5065670;27;88042;-43
2022/08/27 13:15:53;;;;;;;;;;;24.40;48.90;;;;;;5062945;27;87691;-42
2022/08/27 13:18:20;;;;;;;;;;;24.50;50.40;;;;;;5062578;27;88059;-40
2022/08/27 13:20:47;;;;;;;;;;;24.50;48.10;;;;;;5063084;27;86260;-39
2022/08/27 13:23:17;;;;;;;;;;;24.60;48.70;;;;;;5062656;27;88155;-39
2022/08/27 13:26:12;;;;;;;;;;;24.50;47.70;;;;;;5062511;27;89306;-40
2022/08/27 13:28:39;;;;;;;;;;;24.50;47.80;;;;;;5056827;27;88107;-39
2022/08/27 13:31:05;;;;;;;;;;;24.60;47.50;;;;;;5062735;27;88461;-40
2022/08/27 13:33:33;;;;;;;;;;;24.60;48.10;;;;;;5062304;27;89505;-39
2022/08/27 13:35:59;;;;;;;;;;;24.60;48.10;;;;;;5065255;27;86987;-40
2022/08/27 13:38:26;;;;;;;;;;;24.50;47.90;;;;;;5062279;27;89240;-40
2022/08/27 13:40:57;;;;;;;;;;;24.50;47.40;;;;;;5062492;27;87191;-40
2022/08/27 13:43:34;;;;;;;;;;;24.50;46.50;;;;;;5061398;27;89662;-40
2022/08/27 13:46:01;;;;;;;;;;;24.50;46.60;;;;;;5063074;27;87288;-41
2022/08/27 13:48:27;;;;;;;;;;;24.60;46.90;;;;;;5066070;27;87064;-40
2022/08/27 13:50:54;;;;;;;;;;;24.60;48.30;;;;;;5066281;27;87402;-40
2022/08/27 13:56:06;;;;;;;;;;;24.70;47.20;;;;;;5065997;27;87281;-41
2022/08/27 13:58:32;;;;;;;;;;;24.80;47.00;;;;;;5068657;27;87842;-40
2022/08/27 14:01:08;;;;;;;;;;;24.80;45.30;;;;;;5065796;27;86859;-40
2022/08/27 14:03:35;;;;;;;;;;;24.80;45.50;;;;;;5066002;27;87466;-40
2022/08/27 14:06:01;;;;;;;;;;;24.80;45.00;;;;;;5065729;27;87819;-41
2022/08/27 14:08:28;;;;;;;;;;;24.80;46.10;;;;;;5066193;27;87093;-40
2022/08/27 14:11:14;;;;;;;;;;;24.90;45.50;;;;;;5066223;27;87463;-41
2022/08/27 14:13:44;;;;;;;;;;;25.00;44.20;;;;;;5065375;27;89526;-40
2022/08/27 14:16:21;;;;;;;;;;;25.00;44.10;;;;;;5065711;27;87164;-40
2022/08/27 14:19:13;;;;;;;;;;;25.00;45.60;;;;;;5067605;27;89331;-41
2022/08/27 14:21:40;;;;;;;;;;;25.10;49.30;;;;;;5054869;27;87461;-40
2022/08/27 14:24:05;;;;;;;;;;;25.10;46.80;;;;;;5065334;27;89175;-40
2022/08/27 14:26:31;;;;;;;;;;;25.10;47.40;;;;;;5065053;27;88544;-40
2022/08/27 14:28:57;;;;;;;;;;;25.10;47.40;;;;;;5065669;27;86998;-40
2022/08/27 14:31:23;;;;;;;;;;;25.10;46.70;;;;;;5065182;27;88892;-40
2022/08/27 14:33:51;;;;;;;;;;;25.20;46.80;;;;;;5065160;27;87238;-40
2022/08/27 14:36:17;;;;;;;;;;;25.10;47.00;;;;;;5065863;27;86321;-39
2022/08/27 14:38:43;;;;;;;;;;;25.20;47.50;;;;;;5065191;27;88244;-40